Flight Track Log - Related Links

Times and Time Zones

All times are in EDT time to prevent confusion due to time zone crossing. See the CTL13 flight status page for this flight to view local times or setup timezone preferences in your user account.

Time Position Orientation Groundspeed Altitude Reporting Facility
EDT Latitude Longitude Course Direction KTS MPH feet Rate Location/Type
Tue 06:50:53 PM 40.0761 -83.1022 265° West 111 128 1,500  Level Indianapolis Center
Tue 06:51:54 PM 40.0739 -83.1483 266° West 130 150 2,300 738 Climbing Indianapolis Center
Tue 06:52:55 PM 40.0708 -83.2025 266° West 150 173 3,000 724 Climbing Indianapolis Center
Tue 06:53:50 PM 40.0703 -83.2492 269° West 141 162 3,700 783 Climbing Indianapolis Center
Tue 06:54:50 PM 40.0672 -83.3033 266° West 143 165 4,500 667 Climbing Indianapolis Center
Tue 06:55:20 PM 40.0672 -83.3242 270° West 143 165 4,700 590 Climbing Indianapolis Center
Tue 06:55:51 PM 40.0639 -83.3575 263° West 148 170 5,100 581 Climbing Indianapolis Center
Tue 06:56:00 PM 40.0558 -83.4197 265° West  Level FlightAware
Tue 06:56:22 PM 40.0647 -83.3789 273° West 146 168 5,300  Level Indianapolis Center
Tue 06:56:58 PM 40.0625 -83.4147 265° West 152 175 5,800 433 Climbing Indianapolis Center
Tue 06:57:59 PM 40.0569 -83.4711 263° West 158 182 6,000 98 Climbing Indianapolis Center
Tue 06:59:00 PM 40.0547 -83.5364 267° West 169 194 6,000 49 Level Indianapolis Center
Tue 07:00:01 PM 40.0506 -83.5986 265° West 172 198 6,100  Climbing Indianapolis Center
Tue 07:01:02 PM 40.0464 -83.6608 265° West 170 196 6,000 -50 Descending Indianapolis Center
Tue 07:02:02 PM 40.0442 -83.7233 267° West 171 197 6,000 66 Level Indianapolis Center
Tue 07:02:33 PM 40.0436 -83.7511 269° West 172 198 6,100  Climbing Indianapolis Center
Tue 07:03:03 PM 40.0422 -83.7833 267° West 172 198 6,000 -97 Descending Indianapolis Center
Tue 07:03:35 PM 40.0419 -83.8131 269° West 172 198 6,000 64 Level Indianapolis Center
Tue 07:04:37 PM 40.0397 -83.8761 267° West 173 199 6,100  Climbing Indianapolis Center
Tue 07:05:11 PM 40.0369 -83.9164 265° West 169 194 6,000 -63 Descending Indianapolis Center
Tue 07:06:12 PM 40.0369 -83.9794 270° West 170 196 6,000 49 Level Indianapolis Center
Tue 07:07:13 PM 40.0303 -84.0439 262° West 171 197 6,100  Climbing Indianapolis Center
Tue 07:08:14 PM 40.0258 -84.1061 265° West 168 193 6,000 -66 Descending Indianapolis Center
Tue 07:08:44 PM 40.0250 -84.1311 268° West 169 194 6,000  Level Indianapolis Center
Tue 07:09:46 PM 40.0206 -84.1922 265° West 169 194 6,000  Level Indianapolis Center
Tue 07:10:48 PM 40.0156 -84.2525 264° West 168 193 6,000  Level Indianapolis Center
Tue 07:11:49 PM 40.0111 -84.3122 264° West 166 191 6,000  Level Indianapolis Center
Tue 07:12:51 PM 40.0058 -84.3725 263° West 166 191 6,000  Level Indianapolis Center
Tue 07:13:53 PM 40.0028 -84.4333 266° West 166 191 6,000  Level Indianapolis Center
Tue 07:14:55 PM 39.9964 -84.5044 263° West 168 193 6,000  Level Indianapolis Center
Tue 07:15:57 PM 39.9903 -84.5644 262° West 167 192 6,000  Level Indianapolis Center
Tue 07:16:58 PM 39.9858 -84.6247 265° West 167 192 6,000  Level Indianapolis Center
Tue 07:18:00 PM 39.9803 -84.6858 263° West 167 192 6,000  Level Indianapolis Center
Tue 07:19:02 PM 39.9753 -84.7464 264° West 168 193 6,000 49 Level Indianapolis Center
Tue 07:20:03 PM 39.9694 -84.8061 263° West 167 192 6,100  Climbing Indianapolis Center
Tue 07:21:05 PM 39.9661 -84.8675 266° West 168 193 6,000 -48 Descending Indianapolis Center
Tue 07:22:07 PM 39.9614 -84.9358 265° West 169 194 6,000  Level Indianapolis Center
Tue 07:23:09 PM 39.9547 -84.9964 262° West 169 194 6,000  Level Indianapolis Center
Tue 07:24:10 PM 39.9508 -85.0564 265° West 168 193 6,000  Level Indianapolis Center
Tue 07:25:12 PM 39.9450 -85.1164 263° West 167 192 6,000 48 Level Indianapolis Center
Tue 07:26:14 PM 39.9431 -85.1756 268° West 165 190 6,100  Climbing Indianapolis Center
Tue 07:27:15 PM 39.9394 -85.2344 265° West 165 190 6,000  Descending Indianapolis Center
Tue 07:28:17 PM 39.9472 -85.3069 278° West 167 192 6,100 48 Climbing Indianapolis Center
Tue 07:29:19 PM 39.9517 -85.3669 276° West 167 192 6,100  Level Indianapolis Center
Tue 07:30:20 PM 39.9553 -85.4281 274° West 169 194 6,100  Level Indianapolis Center
Tue 07:31:22 PM 39.9603 -85.4867 276° West 166 191 6,100 -242 Level Indianapolis Center
Tue 07:32:24 PM 39.9636 -85.5514 274° West 176 203 5,600 -537 Descending Indianapolis Center
Tue 07:33:25 PM 39.9669 -85.6175 274° West 180 207 5,000 -585 Descending Indianapolis Center
Tue 07:34:27 PM 39.9719 -85.6844 276° West 183 211 4,400 -435 Descending Indianapolis Center
Tue 07:35:29 PM 39.9767 -85.7642 274° West 185 213 4,100 -195 Descending Indianapolis Center
Tue 07:36:30 PM 39.9806 -85.8242 275° West 178 205 4,000 -49 Descending Indianapolis Center
Tue 07:37:32 PM 39.9844 -85.8794 275° West 166 191 4,000 49 Level Indianapolis Center
Tue 07:38:33 PM 39.9875 -85.9347 274° West 159 183 4,100  Climbing Indianapolis Center
Tue 07:39:35 PM 39.9903 -85.9903 274° West 156 180 4,000 -97 Descending Indianapolis Center
Tue 07:40:37 PM 39.9922 -86.0467 273° West 156 180 3,900 -390 Descending Indianapolis Center
Tue 07:41:38 PM 39.9889 -86.1186 267° West 161 185 3,200 -439 Descending Indianapolis Center
Tue 07:42:40 PM 39.9839 -86.1764 264° West 163 188 3,000 -97 Descending Indianapolis Center
Tue 07:43:42 PM 39.9628 -86.2131 233° Southwest 142 163 3,000 -244 Level Indianapolis Center
Tue 07:44:43 PM 39.9303 -86.2336 206° Southwest 138 159 2,500 -341 Descending Indianapolis Center
Tue 07:45:45 PM 39.9025 -86.2528 208° Southwest 134 154 2,300 -194 Descending Indianapolis Center

Login

Don't have an account? Register now (free) for customized features, flight alerts, and more!